createdAt,value
2019-06-20T00:17:52.458Z,100761.02
2019-06-20T00:21:12.234Z,100756.28
2019-06-20T00:23:36.378Z,100756.28
2019-06-20T00:26:11.640Z,100752.92
2019-06-20T00:28:44.671Z,100757.95
2019-06-20T00:32:15.098Z,100763.02
2019-06-20T01:06:12.393Z,100756.52
2019-06-20T01:26:58.503Z,100750.23
2019-06-20T02:21:09.261Z,100740.41
2019-06-20T02:23:39.231Z,100741.43
2019-06-20T02:26:12.669Z,100731.47
2019-06-20T02:28:42.570Z,100738.89
2019-06-20T02:31:12.542Z,100731.80
2019-06-20T02:33:42.487Z,100731.27
2019-06-20T02:51:39.766Z,100722.66
2019-06-20T03:03:31.933Z,100726.14
2019-06-20T03:32:49.148Z,100728.61
2019-06-20T03:35:21.657Z,100737.23
2019-06-20T03:37:55.338Z,100733.00
2019-06-20T03:40:26.008Z,100733.00
2019-06-20T03:43:04.374Z,100730.64
2019-06-20T03:45:35.083Z,100738.41
2019-06-20T03:48:34.619Z,100736.05
2019-06-20T03:56:42.731Z,100743.13
2019-06-20T03:59:13.453Z,100750.22
2019-06-20T04:01:43.224Z,100747.01
2019-06-20T04:04:13.464Z,100751.40
2019-06-20T04:06:46.377Z,100750.73
2019-06-20T04:09:18.501Z,100765.08
2019-06-20T04:11:48.176Z,100750.91
2019-06-20T04:14:17.954Z,100757.14
2019-06-20T04:16:47.825Z,100756.97
2019-06-20T04:19:18.979Z,100757.13
2019-06-20T04:21:48.801Z,100757.12
2019-06-20T04:24:22.241Z,100760.67
2019-06-20T04:29:53.166Z,100759.36
2019-06-20T04:32:23.257Z,100754.05
2019-06-20T04:34:56.309Z,100753.83
2019-06-20T04:37:26.292Z,100762.37
2019-06-20T04:39:56.135Z,100756.62
2019-06-20T04:42:25.788Z,100764.20
2019-06-20T04:45:02.326Z,100767.74
2019-06-20T04:47:39.656Z,100768.09
2019-06-20T04:54:45.907Z,100768.69
2019-06-20T04:57:31.669Z,100773.26
2019-06-20T05:32:55.357Z,100785.81
2019-06-20T05:35:26.014Z,100780.42
2019-06-20T05:37:55.847Z,100779.59
2019-06-20T05:40:25.550Z,100784.84
2019-06-20T05:42:56.545Z,100783.47
2019-06-20T05:45:27.694Z,100789.89
2019-06-20T05:47:57.315Z,100792.94
2019-06-20T05:50:26.984Z,100791.61
2019-06-20T05:52:59.220Z,100791.82
2019-06-20T05:55:30.848Z,100794.55
2019-06-20T05:58:00.376Z,100792.05
2019-06-20T06:00:30.110Z,100794.91
2019-06-20T06:02:59.666Z,100797.11
2019-06-20T06:05:30.691Z,100795.77
2019-06-20T06:08:00.267Z,100795.60
2019-06-20T06:10:29.985Z,100795.13
2019-06-20T06:12:59.709Z,100803.57
2019-06-20T06:15:29.760Z,100810.85
2019-06-20T06:17:59.732Z,100810.85
2019-06-20T06:20:29.326Z,100810.67
2019-06-20T06:23:07.718Z,100815.42
2019-06-20T06:25:37.424Z,100818.62
2019-06-20T06:28:12.696Z,100824.20
2019-06-20T06:30:46.699Z,100826.06
2019-06-20T06:33:27.345Z,100827.91
2019-06-20T06:36:17.248Z,100825.21
2019-06-20T06:39:16.390Z,100825.20
2019-06-20T06:53:39.889Z,100837.20
2019-06-20T06:56:09.505Z,100847.55
2019-06-20T06:58:39.851Z,100838.44
2019-06-20T07:01:10.366Z,100842.14
2019-06-20T07:03:40.196Z,100840.45
2019-06-20T07:06:10.147Z,100837.90
2019-06-20T07:08:39.830Z,100843.49
2019-06-20T07:11:09.693Z,100847.04
2019-06-20T07:13:40.768Z,100843.49
2019-06-20T07:16:10.466Z,100848.56
2019-06-20T07:18:40.370Z,100845.87
2019-06-20T07:21:24.249Z,100842.98
2019-06-20T07:24:04.178Z,100848.89
2019-06-20T07:26:38.498Z,100857.70
2019-06-20T07:29:48.764Z,100849.41
2019-06-20T07:32:24.386Z,100859.89
2019-06-20T07:34:57.949Z,100866.83
2019-06-20T07:37:27.839Z,100864.46
2019-06-20T07:40:02.283Z,100856.32
2019-06-20T07:42:35.214Z,100867.83
2019-06-20T07:45:12.001Z,100874.27
2019-06-20T07:47:51.013Z,100873.42
2019-06-20T07:50:32.029Z,100885.59
2019-06-20T07:53:02.903Z,100889.61
2019-06-20T07:55:33.715Z,100888.95
2019-06-20T07:58:03.519Z,100886.06
2019-06-20T08:00:33.739Z,100887.60
2019-06-20T08:03:07.703Z,100882.53
2019-06-20T08:05:48.049Z,100881.52
2019-06-20T08:08:19.117Z,100880.66
2019-06-20T08:10:49.484Z,100892.15
2019-06-20T08:13:19.193Z,100902.28
2019-06-20T08:15:49.200Z,100901.92
2019-06-20T08:18:22.561Z,100899.21
2019-06-20T08:20:52.469Z,100897.85
2019-06-20T08:23:22.056Z,100896.52
2019-06-20T08:29:14.946Z,100908.50
2019-06-20T08:31:33.044Z,100907.28
2019-06-20T08:34:02.722Z,100904.90
2019-06-20T08:36:32.326Z,100905.20
2019-06-20T08:39:02.613Z,100913.98
2019-06-20T08:41:32.416Z,100907.53
2019-06-20T08:44:03.926Z,100897.71
2019-06-20T08:46:33.904Z,100901.23
2019-06-20T08:49:06.786Z,100903.21
2019-06-20T08:51:36.215Z,100900.86
2019-06-20T08:54:14.134Z,100900.20
2019-06-20T08:56:44.988Z,100901.05
2019-06-20T08:59:24.387Z,100905.30
2019-06-20T09:01:47.834Z,100904.81
2019-06-20T09:04:17.491Z,100904.97
2019-06-20T09:06:50.162Z,100910.53
2019-06-20T09:09:19.535Z,100905.44
2019-06-20T09:11:50.525Z,100921.70
2019-06-20T09:14:26.576Z,100925.45
2019-06-20T09:16:56.482Z,100930.80
2019-06-20T09:19:26.103Z,100926.42
2019-06-20T09:22:27.474Z,100924.90
2019-06-20T09:24:58.425Z,100918.31
2019-06-20T09:27:44.884Z,100931.52
2019-06-20T09:30:17.383Z,100920.53
2019-06-20T09:32:47.827Z,100937.79
2019-06-20T09:35:17.824Z,100938.63
2019-06-20T09:37:47.589Z,100926.45
2019-06-20T09:40:17.976Z,100930.32
2019-06-20T09:42:47.531Z,100948.61
2019-06-20T09:45:25.109Z,100923.53
2019-06-20T09:47:58.123Z,100931.27
2019-06-20T09:50:29.443Z,100925.14
2019-06-20T09:53:02.586Z,100942.55
2019-06-20T09:55:32.166Z,100943.23
2019-06-20T09:58:12.664Z,100925.18
2019-06-20T10:00:58.365Z,100935.01
2019-06-20T10:03:30.702Z,100944.48
2019-06-20T10:06:14.088Z,100923.97
2019-06-20T10:08:43.119Z,100939.38
2019-06-20T10:11:15.614Z,100941.06
2019-06-20T10:13:48.266Z,100945.45
2019-06-20T10:16:20.125Z,100946.13
2019-06-20T10:19:00.050Z,100958.00
2019-06-20T10:21:31.475Z,100956.14
2019-06-20T10:24:04.069Z,100955.83
2019-06-20T10:26:37.805Z,100961.75
2019-06-20T10:29:07.900Z,100959.06
2019-06-20T10:31:45.753Z,100951.78
2019-06-20T10:34:25.319Z,100962.09
2019-06-20T10:36:59.521Z,100972.71
2019-06-20T10:42:06.528Z,100978.27
2019-06-20T10:56:27.958Z,100970.14
2019-06-20T10:59:04.318Z,100983.98
2019-06-20T11:01:46.757Z,100974.42
2019-06-20T11:04:22.512Z,100986.48
2019-06-20T11:09:50.580Z,100984.28
2019-06-20T11:15:17.279Z,100984.69
2019-06-20T11:17:49.691Z,100986.85
2019-06-20T11:20:41.371Z,100990.05
2019-06-20T11:23:19.156Z,100992.45
2019-06-20T11:25:49.077Z,100994.71
2019-06-20T11:28:18.854Z,100996.16
2019-06-20T11:31:01.356Z,100981.96
2019-06-20T11:33:31.625Z,100985.25
2019-06-20T11:36:02.737Z,100985.37
2019-06-20T11:38:32.767Z,100992.13
2019-06-20T11:41:04.317Z,100986.06
2019-06-20T11:43:54.581Z,100997.94
2019-06-20T11:46:24.854Z,100990.08
2019-06-20T11:48:54.364Z,100990.23
2019-06-20T11:51:27.091Z,100993.46
2019-06-20T11:54:27.285Z,100991.44
2019-06-20T12:00:00.190Z,100993.16
2019-06-20T12:03:26.861Z,101000.43
2019-06-20T12:09:10.145Z,101004.29
2019-06-20T12:33:22.152Z,100998.75
2019-06-20T12:41:57.987Z,100999.03
2019-06-20T12:44:39.006Z,101014.50
2019-06-20T12:47:07.356Z,101018.12
2019-06-20T12:49:43.770Z,101007.13
2019-06-20T13:13:40.423Z,101017.82
2019-06-20T13:16:25.265Z,101022.19
2019-06-20T13:19:03.432Z,101012.91
2019-06-20T13:24:13.260Z,101011.34
2019-06-20T13:27:05.210Z,101016.78
2019-06-20T13:29:36.321Z,101013.17
2019-06-20T13:41:03.212Z,101016.20
2019-06-20T13:55:25.628Z,101016.22
2019-06-20T13:58:05.777Z,101021.13
2019-06-20T14:00:51.060Z,101020.91
2019-06-20T14:03:21.412Z,101021.69
2019-06-20T14:05:54.154Z,101023.72
2019-06-20T14:33:13.352Z,101049.09
2019-06-20T14:39:45.019Z,101043.76
2019-06-20T14:54:19.944Z,101053.81
2019-06-20T14:56:53.936Z,101061.04
2019-06-20T14:59:24.487Z,101048.41
2019-06-20T15:12:00.082Z,101046.70
2019-06-20T17:04:04.253Z,101095.64
2019-06-20T17:07:15.618Z,101100.38
2019-06-20T17:09:56.866Z,101113.02
2019-06-20T17:15:45.755Z,101111.59
2019-06-20T17:18:20.226Z,101097.25
2019-06-20T17:29:58.179Z,101107.30
2019-06-20T17:33:09.973Z,101111.10
2019-06-20T17:35:40.310Z,101114.72
2019-06-20T17:38:10.608Z,101110.18
2019-06-20T17:45:10.488Z,101108.96
2019-06-20T17:54:18.582Z,101114.11
2019-06-20T18:03:32.570Z,101130.73
2019-06-20T18:09:31.986Z,101114.94
2019-06-20T18:12:50.145Z,101118.02
2019-06-20T18:20:42.436Z,101105.81
2019-06-20T18:23:35.333Z,101111.03
2019-06-20T18:26:34.361Z,101103.36
2019-06-20T18:29:17.998Z,101110.80
2019-06-20T18:31:52.535Z,101112.02
2019-06-20T18:34:30.349Z,101117.44
2019-06-20T18:37:02.330Z,101117.92
2019-06-20T18:39:34.376Z,101137.75
2019-06-20T18:42:04.383Z,101120.02
2019-06-20T18:44:35.812Z,101129.50
2019-06-20T18:47:06.275Z,101129.94
2019-06-20T18:49:37.484Z,101124.19
2019-06-20T18:52:08.191Z,101120.84
2019-06-20T18:54:41.136Z,101126.38
2019-06-20T18:57:16.493Z,101126.26
2019-06-20T18:59:52.216Z,101124.97
2019-06-20T19:02:22.530Z,101122.22
2019-06-20T19:05:03.184Z,101124.70
2019-06-20T19:07:45.491Z,101125.42
2019-06-20T19:10:18.602Z,101127.48
2019-06-20T19:12:52.612Z,101128.86
2019-06-20T19:15:25.844Z,101131.09
2019-06-20T19:17:58.637Z,101119.56
2019-06-20T19:20:38.459Z,101125.95
2019-06-20T19:23:12.037Z,101124.30
2019-06-20T19:25:43.506Z,101129.71
2019-06-20T19:28:17.147Z,101122.64
2019-06-20T19:30:57.477Z,101124.78
2019-06-20T19:33:37.248Z,101127.22
2019-06-20T19:36:11.705Z,101123.54
2019-06-20T19:38:43.788Z,101125.05
2019-06-20T19:41:23.073Z,101134.72
2019-06-20T19:43:55.271Z,101133.37
2019-06-20T19:46:34.354Z,101130.14
2019-06-20T19:49:09.321Z,101131.31
2019-06-20T19:51:57.386Z,101134.91
2019-06-20T19:54:37.724Z,101133.56
2019-06-20T19:57:10.572Z,101133.06
2019-06-20T20:02:42.048Z,101130.50
2019-06-20T20:05:19.941Z,101136.38
2019-06-20T20:11:03.019Z,101132.58
2019-06-20T20:13:35.053Z,101132.06
2019-06-20T20:16:32.551Z,101145.21
2019-06-20T20:19:06.013Z,101146.36
2019-06-20T20:22:01.000Z,101146.66
2019-06-20T20:24:33.732Z,101151.02
2019-06-20T20:27:09.405Z,101158.30
2019-06-20T20:29:46.420Z,101158.41
2019-06-20T20:32:18.689Z,101165.45
2019-06-20T20:34:48.906Z,101166.74
2019-06-20T20:37:26.864Z,101172.79
2019-06-20T20:40:00.046Z,101172.59
2019-06-20T20:42:32.368Z,101176.61
2019-06-20T20:45:07.574Z,101173.03
2019-06-20T20:47:44.396Z,101175.86
2019-06-20T20:50:20.634Z,101175.70
2019-06-20T20:52:53.746Z,101184.44
2019-06-20T20:55:39.233Z,101173.77
2019-06-20T20:58:14.209Z,101181.36
2019-06-20T21:01:00.459Z,101178.08
2019-06-20T21:03:34.732Z,101175.34
2019-06-20T21:06:05.030Z,101182.59
2019-06-20T21:08:36.361Z,101174.66
2019-06-20T21:11:10.516Z,101178.88
2019-06-20T21:14:10.283Z,101180.27
2019-06-20T21:16:40.716Z,101184.66
2019-06-20T21:19:36.957Z,101183.98
2019-06-20T21:22:08.899Z,101183.10
2019-06-20T21:24:52.335Z,101191.38
2019-06-20T21:27:36.083Z,101189.64
2019-06-20T21:30:17.294Z,101191.25
2019-06-20T21:32:54.085Z,101194.79
2019-06-20T21:35:25.812Z,101191.20
2019-06-20T21:38:29.170Z,101196.22
2019-06-20T21:41:08.929Z,101191.99
2019-06-20T21:43:40.431Z,101198.16
2019-06-20T21:47:08.446Z,101195.41
2019-06-20T21:50:11.702Z,101196.08
2019-06-20T21:52:43.893Z,101200.97
2019-06-20T21:55:17.319Z,101207.22
2019-06-20T21:57:54.501Z,101206.50
2019-06-20T22:00:48.440Z,101203.51
2019-06-20T22:03:24.648Z,101200.08
2019-06-20T22:05:58.429Z,101208.17
2019-06-20T22:08:28.133Z,101208.68
2019-06-20T22:11:00.915Z,101205.14
2019-06-20T22:13:30.803Z,101203.58
2019-06-20T22:16:08.635Z,101207.13
2019-06-20T22:18:40.147Z,101202.57
2019-06-20T22:21:11.706Z,101204.42
2019-06-20T22:23:41.694Z,101209.64
2019-06-20T22:26:14.534Z,101208.80
2019-06-20T22:28:45.261Z,101213.19
2019-06-20T22:31:38.282Z,101214.20
2019-06-20T22:34:11.136Z,101219.09
2019-06-20T22:36:43.588Z,101221.62
2019-06-20T22:39:21.612Z,101227.36
2019-06-20T22:41:51.681Z,101227.02
2019-06-20T22:44:21.515Z,101234.22
2019-06-20T22:46:51.412Z,101233.37
2019-06-20T22:49:21.734Z,101236.73
2019-06-20T22:51:51.539Z,101235.34
2019-06-20T22:54:22.348Z,101235.34
2019-06-20T22:56:52.444Z,101242.59
2019-06-20T22:59:22.363Z,101236.81
2019-06-20T23:01:53.608Z,101241.74
2019-06-20T23:04:24.903Z,101238.16
2019-06-20T23:06:56.773Z,101239.89
2019-06-20T23:09:27.431Z,101240.73
2019-06-20T23:11:58.079Z,101238.56
2019-06-20T23:14:29.040Z,101236.36
2019-06-20T23:17:03.980Z,101245.30
2019-06-20T23:19:34.823Z,101244.35
2019-06-20T23:22:08.523Z,101238.83
2019-06-20T23:24:45.092Z,101245.41
2019-06-20T23:27:16.685Z,101250.02
2019-06-20T23:29:47.271Z,101250.06
2019-06-20T23:32:17.975Z,101245.34
2019-06-20T23:34:47.637Z,101239.10
2019-06-20T23:37:17.522Z,101239.61
2019-06-20T23:39:48.575Z,101247.36
2019-06-20T23:42:20.128Z,101242.47
2019-06-20T23:44:49.986Z,101248.34
2019-06-20T23:47:19.679Z,101235.84
2019-06-20T23:49:49.462Z,101244.66
2019-06-20T23:52:21.948Z,101255.09
2019-06-20T23:54:51.694Z,101257.09
2019-06-20T23:57:21.421Z,101257.77
2019-06-20T23:59:51.134Z,101256.70
